createdAt,value
2022-11-30T00:00:26.636Z,100088.19
2022-11-30T00:01:13.976Z,100075.47
2022-11-30T00:01:55.831Z,100090.38
2022-11-30T00:02:37.631Z,100084.09
2022-11-30T00:03:19.681Z,100063.59
2022-11-30T00:04:01.370Z,100079.66
2022-11-30T00:04:43.030Z,100084.94
2022-11-30T00:05:25.376Z,100087.06
2022-11-30T00:06:09.655Z,100086.06
2022-11-30T00:06:56.736Z,100056.31
2022-11-30T00:07:39.070Z,100079.13
2022-11-30T00:08:21.147Z,100060.28
2022-11-30T00:09:02.741Z,100073.47
2022-11-30T00:09:44.436Z,100070.34
2022-11-30T00:10:26.109Z,100074.47
2022-11-30T00:11:12.841Z,100075.13
2022-11-30T00:11:54.469Z,100071.50
2022-11-30T00:12:36.082Z,100074.16
2022-11-30T00:13:17.709Z,100070.84
2022-11-30T00:13:59.838Z,100078.59
2022-11-30T00:14:41.495Z,100069.19
2022-11-30T00:15:23.195Z,100075.28
2022-11-30T00:16:05.506Z,100069.88
2022-11-30T00:16:47.334Z,100073.66
2022-11-30T00:17:29.224Z,100082.38
2022-11-30T00:18:10.863Z,100076.44
2022-11-30T00:18:52.553Z,100072.50
2022-11-30T00:19:34.261Z,100076.44
2022-11-30T00:20:16.385Z,100058.94
2022-11-30T00:21:02.076Z,100077.44
2022-11-30T00:21:43.843Z,100079.22
2022-11-30T00:22:25.574Z,100078.41
2022-11-30T00:23:09.962Z,100075.59
2022-11-30T00:23:51.638Z,100077.44
2022-11-30T00:24:33.278Z,100046.88
2022-11-30T00:25:15.425Z,100080.06
2022-11-30T00:26:01.447Z,100072.00
2022-11-30T00:26:43.171Z,100070.34
2022-11-30T00:27:25.089Z,100070.19
2022-11-30T00:28:06.841Z,100073.50
2022-11-30T00:28:48.676Z,100058.25
2022-11-30T00:29:30.415Z,100082.06
2022-11-30T00:30:12.721Z,100044.25
2022-11-30T00:31:00.562Z,100073.84
2022-11-30T00:31:42.285Z,100074.66
2022-11-30T00:32:25.040Z,100067.53
2022-11-30T00:33:06.669Z,100070.19
2022-11-30T00:33:48.393Z,100075.31
2022-11-30T00:34:30.071Z,100052.84
2022-11-30T00:35:11.749Z,100066.56
2022-11-30T00:35:57.997Z,100067.06
2022-11-30T00:36:39.671Z,100070.53
2022-11-30T00:37:21.808Z,100068.88
2022-11-30T00:38:03.581Z,100062.25
2022-11-30T00:38:46.105Z,100060.97
2022-11-30T00:39:32.351Z,100067.22
2022-11-30T00:40:17.063Z,100067.53
2022-11-30T00:40:59.467Z,100072.00
2022-11-30T00:41:41.107Z,100041.75
2022-11-30T00:42:22.772Z,100061.59
2022-11-30T00:43:04.369Z,100067.53
2022-11-30T00:43:46.210Z,100064.75
2022-11-30T00:44:27.871Z,100066.41
2022-11-30T00:45:10.046Z,100069.88
2022-11-30T00:45:51.790Z,100069.69
2022-11-30T00:46:33.616Z,100073.00
2022-11-30T00:47:15.338Z,100044.75
2022-11-30T00:47:57.034Z,100068.56
2022-11-30T00:48:39.722Z,100065.56
2022-11-30T00:49:21.423Z,100070.53
2022-11-30T00:50:04.299Z,100073.84
2022-11-30T00:50:46.037Z,100073.69
2022-11-30T00:51:27.687Z,100080.63
2022-11-30T00:52:09.396Z,100072.69
2022-11-30T00:52:51.004Z,100072.53
2022-11-30T00:53:33.142Z,100059.31
2022-11-30T00:54:14.888Z,100068.56
2022-11-30T00:54:56.740Z,100057.19
2022-11-30T00:55:38.428Z,100073.88
2022-11-30T00:56:20.107Z,100077.81
2022-11-30T00:57:01.935Z,100064.13
2022-11-30T00:57:44.543Z,100082.47
2022-11-30T00:58:26.229Z,100081.50
2022-11-30T00:59:07.907Z,100078.84
2022-11-30T00:59:49.531Z,100081.50
2022-11-30T01:00:31.270Z,100066.91
2022-11-30T01:01:12.942Z,100074.25
2022-11-30T01:01:55.233Z,100054.22
2022-11-30T01:02:36.964Z,100071.91
2022-11-30T01:03:18.634Z,100080.66
2022-11-30T01:04:00.349Z,100074.56
2022-11-30T01:04:42.029Z,100079.16
2022-11-30T01:05:23.655Z,100075.81
2022-11-30T01:06:07.948Z,100075.34
2022-11-30T01:06:49.660Z,100079.97
2022-11-30T01:07:31.430Z,100065.09
2022-11-30T01:08:13.267Z,100079.13
2022-11-30T01:08:55.037Z,100082.44
2022-11-30T01:09:36.824Z,100080.63
2022-11-30T01:10:18.526Z,100083.25
2022-11-30T01:11:17.989Z,100066.91
2022-11-30T01:11:59.688Z,100075.66
2022-11-30T01:12:41.794Z,100082.25
2022-11-30T01:13:24.373Z,100072.97
2022-11-30T01:14:06.100Z,100080.72
2022-11-30T01:14:48.043Z,100075.75
2022-11-30T01:15:31.489Z,100081.69
2022-11-30T01:16:16.890Z,100076.91
2022-11-30T01:16:58.744Z,100092.72
2022-11-30T01:17:40.454Z,100087.75
2022-11-30T01:18:22.585Z,100087.28
2022-11-30T01:19:04.315Z,100072.03
2022-11-30T01:19:46.016Z,100092.88
2022-11-30T01:20:27.712Z,100095.66
2022-11-30T01:21:11.512Z,100071.69
2022-11-30T01:21:53.201Z,100085.91
2022-11-30T01:22:35.377Z,100098.16
2022-11-30T01:23:17.140Z,100087.06
2022-11-30T01:23:58.882Z,100101.75
2022-11-30T01:24:40.540Z,100098.16
2022-11-30T01:25:23.148Z,100073.66
2022-11-30T01:26:14.318Z,100089.38
2022-11-30T01:26:55.954Z,100097.47
2022-11-30T01:27:38.668Z,100103.72
2022-11-30T01:28:20.281Z,100100.41
2022-11-30T01:29:01.955Z,100088.19
2022-11-30T01:29:43.707Z,100055.94
2022-11-30T01:30:25.359Z,100103.56
2022-11-30T01:31:09.410Z,100092.47
2022-11-30T01:31:51.225Z,100098.28
2022-11-30T01:32:32.934Z,100097.44
2022-11-30T01:33:14.622Z,100101.59
2022-11-30T01:33:56.400Z,100104.88
2022-11-30T01:34:38.157Z,100082.22
2022-11-30T01:35:19.824Z,100102.06
2022-11-30T01:36:13.842Z,100099.44
2022-11-30T01:36:55.602Z,100063.75
2022-11-30T01:37:37.391Z,100102.91
2022-11-30T01:38:19.318Z,100101.91
2022-11-30T01:39:01.092Z,100093.31
2022-11-30T01:39:42.796Z,100065.41
2022-11-30T01:40:24.607Z,100100.78
2022-11-30T01:41:07.462Z,100075.00
2022-11-30T01:41:49.225Z,100082.59
2022-11-30T01:42:32.935Z,100089.88
2022-11-30T01:43:20.273Z,100098.97
2022-11-30T01:44:07.429Z,100097.16
2022-11-30T01:44:51.841Z,100105.91
2022-11-30T01:45:33.542Z,100103.25
2022-11-30T01:46:33.948Z,100103.59
2022-11-30T01:47:16.172Z,100094.69
2022-11-30T01:47:58.007Z,100074.84
2022-11-30T01:48:39.859Z,100069.56
2022-11-30T01:49:29.632Z,100103.97
2022-11-30T01:50:19.573Z,100085.00
2022-11-30T01:51:01.480Z,100098.91
2022-11-30T01:51:58.029Z,100102.69
2022-11-30T01:52:43.528Z,100090.81
2022-11-30T01:53:25.694Z,100102.91
2022-11-30T01:54:12.047Z,100105.22
2022-11-30T01:55:09.663Z,100095.28
2022-11-30T01:55:51.346Z,100070.69
2022-11-30T01:56:33.526Z,100070.53
2022-11-30T01:57:24.249Z,100094.97
2022-11-30T01:58:27.945Z,100096.47
2022-11-30T01:59:10.672Z,100080.88
2022-11-30T01:59:54.388Z,100084.72
2022-11-30T02:00:36.052Z,100097.25
2022-11-30T02:01:17.877Z,100094.59
2022-11-30T02:01:59.670Z,100082.53
2022-11-30T02:02:54.154Z,100094.09
2022-11-30T02:03:43.697Z,100095.41
2022-11-30T02:04:29.436Z,100099.19
2022-11-30T02:05:12.637Z,100098.84
2022-11-30T02:05:54.869Z,100099.66
2022-11-30T02:06:36.522Z,100100.81
2022-11-30T02:07:18.244Z,100089.72
2022-11-30T02:08:00.915Z,100101.97
2022-11-30T02:08:42.870Z,100102.28
2022-11-30T02:09:26.900Z,100102.28
2022-11-30T02:10:17.153Z,100106.72
2022-11-30T02:11:06.011Z,100111.19
2022-11-30T02:11:48.476Z,100073.00
2022-11-30T02:12:40.460Z,100111.50
2022-11-30T02:13:35.714Z,100077.22
2022-11-30T02:14:33.662Z,100106.72
2022-11-30T02:15:22.737Z,100103.19
2022-11-30T02:16:27.615Z,100118.72
2022-11-30T02:17:31.312Z,100110.28
2022-11-30T02:18:19.504Z,100104.66
2022-11-30T02:19:16.049Z,100118.34
2022-11-30T02:20:16.159Z,100109.59
2022-11-30T02:21:23.739Z,100112.09
2022-11-30T02:22:23.890Z,100112.91
2022-11-30T02:23:05.579Z,100116.69
2022-11-30T02:23:49.993Z,100113.06
2022-11-30T02:24:34.287Z,100113.22
2022-11-30T02:25:28.857Z,100113.22
2022-11-30T02:26:31.440Z,100104.81
2022-11-30T02:27:30.110Z,100116.38
2022-11-30T02:28:39.292Z,100111.31
2022-11-30T02:29:29.331Z,100110.00
2022-11-30T02:30:16.630Z,100102.06
2022-11-30T02:31:02.073Z,100114.16
2022-11-30T02:32:02.133Z,100110.06
2022-11-30T02:32:53.973Z,100111.41
2022-11-30T02:33:35.885Z,100108.63
2022-11-30T02:34:21.977Z,100112.56
2022-11-30T02:35:06.138Z,100110.59
2022-11-30T02:35:55.150Z,100101.19
2022-11-30T02:36:37.640Z,100105.69
2022-11-30T02:37:20.429Z,100111.13
2022-11-30T02:38:04.105Z,100099.41
2022-11-30T02:38:46.182Z,100108.19
2022-11-30T02:39:27.893Z,100102.22
2022-11-30T02:40:13.372Z,100108.69
2022-11-30T02:40:55.511Z,100113.78
2022-11-30T02:41:39.157Z,100103.88
2022-11-30T02:42:21.023Z,100105.84
2022-11-30T02:43:04.970Z,100100.78
2022-11-30T02:43:46.889Z,100104.38
2022-11-30T02:44:29.553Z,100110.66
2022-11-30T02:45:12.037Z,100105.53
2022-11-30T02:46:12.116Z,100110.97
2022-11-30T02:47:04.960Z,100103.22
2022-11-30T02:47:55.218Z,100109.00
2022-11-30T02:48:58.412Z,100111.78
2022-11-30T02:50:06.445Z,100109.47
2022-11-30T02:50:52.749Z,100104.50
2022-11-30T02:51:38.069Z,100102.50
2022-11-30T02:52:24.046Z,100104.31
2022-11-30T02:53:08.147Z,100097.69
2022-11-30T02:53:50.024Z,100105.78
2022-11-30T02:54:32.947Z,100102.16
2022-11-30T02:55:17.546Z,100114.38
2022-11-30T02:55:59.207Z,100112.72
2022-11-30T02:56:40.926Z,100110.09
2022-11-30T02:57:22.571Z,100110.59
2022-11-30T02:58:04.276Z,100117.22
2022-11-30T02:58:46.647Z,100109.31
2022-11-30T02:59:28.944Z,100113.25
2022-11-30T03:00:12.180Z,100105.84
2022-11-30T03:00:53.829Z,100114.91
2022-11-30T03:01:37.814Z,100085.63
2022-11-30T03:02:19.592Z,100087.31
2022-11-30T03:03:01.285Z,100117.72
2022-11-30T03:03:43.007Z,100093.75
2022-11-30T03:04:24.714Z,100114.28
2022-11-30T03:05:07.458Z,100106.81
2022-11-30T03:05:49.131Z,100108.78
2022-11-30T03:06:30.824Z,100102.16
2022-11-30T03:07:12.643Z,100126.66
2022-11-30T03:07:54.402Z,100116.09
2022-11-30T03:08:36.149Z,100119.56
2022-11-30T03:09:17.853Z,100117.56
2022-11-30T03:10:00.046Z,100119.88
2022-11-30T03:10:41.741Z,100120.72
2022-11-30T03:11:23.482Z,100122.06
2022-11-30T03:12:05.414Z,100104.34
2022-11-30T03:12:47.231Z,100103.34
2022-11-30T03:13:30.929Z,100109.78
2022-11-30T03:14:12.688Z,100124.66
2022-11-30T03:14:54.332Z,100088.28
2022-11-30T03:15:36.027Z,100088.44
2022-11-30T03:16:17.907Z,100117.69
2022-11-30T03:16:59.623Z,100126.91
2022-11-30T03:17:41.411Z,100117.38
2022-11-30T03:18:23.203Z,100092.72
2022-11-30T03:19:05.565Z,100107.25
2022-11-30T03:19:47.295Z,100120.78
2022-11-30T03:20:28.977Z,100120.09
2022-11-30T03:21:12.298Z,100113.34
2022-11-30T03:21:53.985Z,100116.16
2022-11-30T03:22:35.807Z,100106.22
2022-11-30T03:23:17.529Z,100118.28
2022-11-30T03:23:59.223Z,100119.28
2022-11-30T03:24:40.914Z,100084.41
2022-11-30T03:25:22.576Z,100118.66
2022-11-30T03:26:05.925Z,100117.38
2022-11-30T03:26:47.901Z,100124.94
2022-11-30T03:27:29.661Z,100102.00
2022-11-30T03:28:11.339Z,100121.16
2022-11-30T03:28:52.961Z,100115.22
2022-11-30T03:29:34.680Z,100119.00
2022-11-30T03:30:17.193Z,100114.88
2022-11-30T03:30:59.051Z,100108.56
2022-11-30T03:31:40.763Z,100084.25
2022-11-30T03:32:22.440Z,100095.00
2022-11-30T03:33:04.254Z,100111.69
2022-11-30T03:33:45.989Z,100111.69
2022-11-30T03:34:28.594Z,100107.41
2022-11-30T03:35:10.206Z,100118.28
2022-11-30T03:36:03.052Z,100112.56
2022-11-30T03:36:44.756Z,100114.06
2022-11-30T03:37:26.559Z,100116.34
2022-11-30T03:38:08.446Z,100115.22
2022-11-30T03:38:50.677Z,100116.03
2022-11-30T03:39:32.356Z,100112.94
2022-11-30T03:40:14.099Z,100110.28
2022-11-30T03:41:02.746Z,100118.53
2022-11-30T03:41:44.498Z,100104.50
2022-11-30T03:42:26.320Z,100115.91
2022-11-30T03:43:08.058Z,100112.28
2022-11-30T03:43:49.730Z,100115.91
2022-11-30T03:44:31.360Z,100118.53
2022-11-30T03:45:13.135Z,100110.63
2022-11-30T03:45:55.118Z,100113.94
2022-11-30T03:46:37.022Z,100116.41
2022-11-30T03:47:18.888Z,100113.78
2022-11-30T03:48:00.709Z,100115.28
2022-11-30T03:48:42.480Z,100119.72
2022-11-30T03:49:24.121Z,100123.19
2022-11-30T03:50:06.558Z,100099.88
2022-11-30T03:50:50.052Z,100111.78
2022-11-30T03:51:31.756Z,100116.56
2022-11-30T03:52:13.433Z,100116.53
2022-11-30T03:52:55.081Z,100106.91
2022-11-30T03:53:37.014Z,100120.59
2022-11-30T03:54:18.661Z,100097.75
2022-11-30T03:55:00.259Z,100113.63
2022-11-30T03:55:41.903Z,100113.63
2022-11-30T03:56:24.279Z,100116.91
2022-11-30T03:57:06.016Z,100117.75
2022-11-30T03:57:47.722Z,100118.56
2022-11-30T03:58:30.022Z,100116.78
2022-11-30T03:59:11.697Z,100087.84
2022-11-30T03:59:53.395Z,100114.25
2022-11-30T04:00:35.244Z,100119.69
2022-11-30T04:01:22.205Z,100114.72
2022-11-30T04:02:03.947Z,100097.31
2022-11-30T04:02:45.699Z,100115.50
2022-11-30T04:03:28.004Z,100103.88
2022-11-30T04:04:11.453Z,100121.59
2022-11-30T04:04:53.213Z,100122.03
2022-11-30T04:05:34.865Z,100092.41
2022-11-30T04:06:16.888Z,100124.16
2022-11-30T04:06:58.664Z,100123.47
2022-11-30T04:07:40.479Z,100102.16
2022-11-30T04:08:22.390Z,100127.94
2022-11-30T04:09:04.168Z,100099.34
2022-11-30T04:09:45.928Z,100115.56
2022-11-30T04:10:27.622Z,100124.84
2022-11-30T04:11:09.827Z,100110.00
2022-11-30T04:11:51.532Z,100119.75
2022-11-30T04:12:33.234Z,100104.19
2022-11-30T04:13:14.896Z,100115.97
2022-11-30T04:13:56.611Z,100121.78
2022-11-30T04:14:38.267Z,100118.81
2022-11-30T04:15:19.979Z,100124.28
2022-11-30T04:16:02.086Z,100103.16
2022-11-30T04:16:43.816Z,100122.84
2022-11-30T04:17:25.480Z,100119.06
2022-11-30T04:18:07.141Z,100118.56
2022-11-30T04:18:48.814Z,100117.88
2022-11-30T04:19:30.480Z,100093.06
2022-11-30T04:20:12.289Z,100121.03
2022-11-30T04:20:55.770Z,100118.06
2022-11-30T04:21:37.507Z,100119.72
2022-11-30T04:22:19.183Z,100117.59
2022-11-30T04:23:00.835Z,100125.22
2022-11-30T04:23:42.551Z,100104.88
2022-11-30T04:24:24.222Z,100096.09
2022-11-30T04:25:06.489Z,100113.31
2022-11-30T04:25:48.333Z,100117.59
2022-11-30T04:26:29.960Z,100114.28
2022-11-30T04:27:11.583Z,100106.03
2022-11-30T04:27:53.153Z,100097.38
2022-11-30T04:28:35.294Z,100113.28
2022-11-30T04:29:16.928Z,100107.16
2022-11-30T04:29:59.664Z,100106.97
2022-11-30T04:30:41.580Z,100091.25
2022-11-30T04:31:23.286Z,100117.91
2022-11-30T04:32:05.034Z,100116.91
2022-11-30T04:32:46.644Z,100114.28
2022-11-30T04:33:28.552Z,100105.38
2022-11-30T04:34:10.198Z,100119.25
2022-11-30T04:34:51.806Z,100104.41
2022-11-30T04:35:33.897Z,100116.63
2022-11-30T04:36:19.675Z,100076.28
2022-11-30T04:37:01.526Z,100110.03
2022-11-30T04:37:43.693Z,100109.88
2022-11-30T04:38:26.333Z,100101.75
2022-11-30T04:39:07.919Z,100113.84
2022-11-30T04:39:49.602Z,100110.22
2022-11-30T04:40:31.395Z,100112.72
2022-11-30T04:41:13.269Z,100121.44
2022-11-30T04:41:54.940Z,100114.38
2022-11-30T04:42:36.627Z,100117.00
2022-11-30T04:43:18.635Z,100117.69
2022-11-30T04:44:00.264Z,100112.41
2022-11-30T04:44:41.980Z,100115.03
2022-11-30T04:45:23.653Z,100108.25
2022-11-30T04:46:05.911Z,100096.03
2022-11-30T04:46:47.749Z,100109.25
2022-11-30T04:47:29.635Z,100097.84
2022-11-30T04:48:11.763Z,100086.25
2022-11-30T04:48:53.417Z,100098.84
2022-11-30T04:49:35.072Z,100103.13
2022-11-30T04:50:16.808Z,100107.44
2022-11-30T04:51:02.951Z,100109.91
2022-11-30T04:51:44.636Z,100103.81
2022-11-30T04:52:26.396Z,100109.09
2022-11-30T04:53:08.711Z,100110.06
2022-11-30T04:53:50.437Z,100091.22
2022-11-30T04:54:32.072Z,100087.22
2022-11-30T04:55:13.782Z,100111.88
2022-11-30T04:55:55.416Z,100083.44
2022-11-30T04:56:37.219Z,100099.50
2022-11-30T04:57:19.483Z,100070.38
2022-11-30T04:58:01.130Z,100116.84
2022-11-30T04:58:42.807Z,100100.81
2022-11-30T04:59:24.591Z,100101.78
2022-11-30T05:00:06.986Z,100110.38
2022-11-30T05:00:48.804Z,100090.69
2022-11-30T05:01:30.703Z,100084.25
2022-11-30T05:02:12.353Z,100109.38
2022-11-30T05:02:56.396Z,100100.78
2022-11-30T05:03:38.111Z,100087.88
2022-11-30T05:04:19.847Z,100113.66
2022-11-30T05:05:01.623Z,100114.50
2022-11-30T05:05:43.221Z,100104.09
2022-11-30T05:06:24.858Z,100101.75
2022-11-30T05:07:06.850Z,100108.69
2022-11-30T05:07:57.282Z,100118.63
2022-11-30T05:08:39.028Z,100119.28
2022-11-30T05:09:20.630Z,100114.97
2022-11-30T05:10:02.966Z,100115.66
2022-11-30T05:10:48.833Z,100086.59
2022-11-30T05:11:33.426Z,100107.72
2022-11-30T05:12:15.194Z,100089.53
2022-11-30T05:12:57.245Z,100118.44
2022-11-30T05:13:38.907Z,100105.38
2022-11-30T05:14:20.527Z,100118.13
2022-11-30T05:15:02.215Z,100109.69
2022-11-30T05:15:43.819Z,100105.06
2022-11-30T05:16:25.555Z,100095.09
2022-11-30T05:17:07.267Z,100112.97
2022-11-30T05:17:48.934Z,100117.25
2022-11-30T05:18:31.901Z,100119.91
2022-11-30T05:19:14.662Z,100118.06
2022-11-30T05:19:56.317Z,100121.53
2022-11-30T05:20:37.993Z,100125.97
2022-11-30T05:21:19.825Z,100103.97
2022-11-30T05:22:01.555Z,100122.69
2022-11-30T05:22:43.287Z,100130.47
2022-11-30T05:23:25.058Z,100092.91
2022-11-30T05:24:07.318Z,100124.50
2022-11-30T05:24:49.185Z,100126.63
2022-11-30T05:25:31.013Z,100128.44
2022-11-30T05:26:12.900Z,100125.78
2022-11-30T05:26:54.524Z,100123.97
2022-11-30T05:27:36.576Z,100099.69
2022-11-30T05:28:18.439Z,100111.41
2022-11-30T05:29:00.087Z,100125.34
2022-11-30T05:29:41.724Z,100122.69
2022-11-30T05:30:24.311Z,100105.31
2022-11-30T05:31:06.123Z,100099.69
2022-11-30T05:31:47.843Z,100102.19
2022-11-30T05:32:29.550Z,100109.59
2022-11-30T05:33:11.749Z,100102.84
2022-11-30T05:33:54.207Z,100119.16
2022-11-30T05:34:49.611Z,100123.63
2022-11-30T05:35:33.255Z,100137.84
2022-11-30T05:36:14.979Z,100139.66
2022-11-30T05:36:56.619Z,100122.97
2022-11-30T05:37:38.368Z,100141.47
2022-11-30T05:38:20.062Z,100136.19
2022-11-30T05:39:01.760Z,100130.09
2022-11-30T05:39:43.425Z,100145.47
2022-11-30T05:40:27.863Z,100135.72
2022-11-30T05:41:09.600Z,100140.66
2022-11-30T05:41:51.370Z,100138.88
2022-11-30T05:42:33.206Z,100062.25
2022-11-30T05:43:14.996Z,100137.69
2022-11-30T05:43:56.951Z,100134.69
2022-11-30T05:44:38.687Z,100134.00
2022-11-30T05:45:20.352Z,100134.50
2022-11-30T05:46:04.432Z,100129.66
2022-11-30T05:46:46.241Z,100137.75
2022-11-30T05:47:27.940Z,100139.88
2022-11-30T05:48:09.659Z,100144.94
2022-11-30T05:48:51.375Z,100145.25
2022-11-30T05:49:33.075Z,100117.63
2022-11-30T05:50:14.939Z,100158.50
2022-11-30T05:51:15.372Z,100141.84
2022-11-30T05:51:57.156Z,100153.28
2022-11-30T05:52:38.783Z,100136.59
2022-11-30T05:53:20.496Z,100149.50
2022-11-30T05:54:02.104Z,100152.00
2022-11-30T05:54:43.718Z,100152.78
2022-11-30T05:55:25.471Z,100120.34
2022-11-30T05:56:10.596Z,100156.09
2022-11-30T05:56:54.952Z,100151.16
2022-11-30T05:57:40.569Z,100148.31
2022-11-30T05:58:22.233Z,100151.09
2022-11-30T05:59:03.856Z,100160.00
2022-11-30T05:59:45.596Z,100151.59
2022-11-30T06:00:27.279Z,100154.66
2022-11-30T06:01:16.860Z,100147.84
2022-11-30T06:01:58.707Z,100162.53
2022-11-30T06:02:40.563Z,100148.16
2022-11-30T06:03:22.512Z,100136.84
2022-11-30T06:04:08.876Z,100166.06
2022-11-30T06:04:50.789Z,100163.78
2022-11-30T06:05:35.214Z,100151.63
2022-11-30T06:06:17.673Z,100170.31
2022-11-30T06:06:59.484Z,100168.66
2022-11-30T06:07:41.539Z,100166.31
2022-11-30T06:08:23.653Z,100145.13
2022-11-30T06:09:05.491Z,100171.94
2022-11-30T06:09:47.130Z,100151.06
2022-11-30T06:10:28.830Z,100141.00
2022-11-30T06:11:10.738Z,100163.09
2022-11-30T06:11:52.419Z,100169.28
2022-11-30T06:12:34.123Z,100165.81
2022-11-30T06:13:15.817Z,100171.09
2022-11-30T06:13:57.460Z,100170.28
2022-11-30T06:14:39.173Z,100144.06
2022-11-30T06:15:20.845Z,100162.94
2022-11-30T06:16:04.172Z,100167.31
2022-11-30T06:16:46.055Z,100155.59
2022-11-30T06:17:27.779Z,100147.00
2022-11-30T06:18:12.168Z,100162.41
2022-11-30T06:18:53.851Z,100150.84
2022-11-30T06:19:35.477Z,100157.13
2022-11-30T06:20:17.261Z,100171.59
2022-11-30T06:21:04.156Z,100165.66
2022-11-30T06:21:45.803Z,100159.56
2022-11-30T06:22:27.550Z,100162.59
2022-11-30T06:23:09.266Z,100156.78
2022-11-30T06:23:50.948Z,100159.94
2022-11-30T06:24:32.641Z,100142.28
2022-11-30T06:25:14.949Z,100166.09
2022-11-30T06:25:56.801Z,100152.41
2022-11-30T06:26:38.545Z,100159.69
2022-11-30T06:27:20.222Z,100164.66
2022-11-30T06:28:01.878Z,100155.91
2022-11-30T06:28:47.890Z,100159.22
2022-11-30T06:29:30.003Z,100160.88
2022-11-30T06:30:12.348Z,100161.72
2022-11-30T06:30:58.521Z,100160.88
2022-11-30T06:31:40.390Z,100142.19
2022-11-30T06:32:22.071Z,100153.13
2022-11-30T06:33:04.040Z,100153.44
2022-11-30T06:33:45.683Z,100142.19
2022-11-30T06:34:27.345Z,100154.44
2022-11-30T06:35:09.287Z,100163.53
2022-11-30T06:35:51.372Z,100124.84
2022-11-30T06:36:36.297Z,100127.47
2022-11-30T06:37:18.297Z,100157.09
2022-11-30T06:38:00.556Z,100158.75
2022-11-30T06:38:42.214Z,100157.09
2022-11-30T06:39:49.935Z,100152.78
2022-11-30T06:40:25.503Z,100154.63
2022-11-30T06:41:09.922Z,100144.53
2022-11-30T06:41:54.445Z,100147.03
2022-11-30T06:42:37.316Z,100132.44
2022-11-30T06:43:19.181Z,100151.78
2022-11-30T06:44:00.789Z,100126.28
2022-11-30T06:44:42.476Z,100153.88
2022-11-30T06:45:24.157Z,100143.66
2022-11-30T06:46:07.335Z,100150.91
2022-11-30T06:46:49.232Z,100146.91
2022-11-30T06:47:30.935Z,100150.38
2022-11-30T06:48:13.369Z,100146.22
2022-11-30T06:48:55.582Z,100142.09
2022-11-30T06:49:37.458Z,100152.34
2022-11-30T06:50:19.146Z,100124.88
2022-11-30T06:51:01.632Z,100146.22
2022-11-30T06:51:43.775Z,100143.75
2022-11-30T06:52:25.706Z,100150.81
2022-11-30T06:53:07.440Z,100130.47
2022-11-30T06:53:49.228Z,100150.00
2022-11-30T06:54:30.899Z,100153.66
2022-11-30T06:55:12.592Z,100154.63
2022-11-30T06:55:54.244Z,100147.69
2022-11-30T06:56:35.872Z,100152.97
2022-11-30T06:57:17.663Z,100150.34
2022-11-30T06:58:09.710Z,100152.00
2022-11-30T06:58:52.446Z,100157.25
2022-11-30T06:59:34.156Z,100154.44
2022-11-30T07:00:16.659Z,100126.34
2022-11-30T07:00:58.336Z,100147.53
2022-11-30T07:01:39.992Z,100156.09
2022-11-30T07:02:21.950Z,100152.50
2022-11-30T07:03:05.195Z,100149.69
2022-11-30T07:03:46.993Z,100147.22
2022-11-30T07:04:28.892Z,100147.75
2022-11-30T07:05:10.572Z,100150.38
2022-11-30T07:05:52.251Z,100153.31
2022-11-30T07:06:33.870Z,100144.53
2022-11-30T07:07:16.266Z,100158.59
2022-11-30T07:07:58.127Z,100153.47
2022-11-30T07:08:40.585Z,100157.09
2022-11-30T07:09:22.187Z,100152.28
2022-11-30T07:10:04.026Z,100157.56
2022-11-30T07:10:47.383Z,100155.91
2022-11-30T07:11:29.036Z,100161.19
2022-11-30T07:12:11.794Z,100143.97
2022-11-30T07:12:53.539Z,100151.22
2022-11-30T07:13:35.422Z,100162.00
2022-11-30T07:14:17.084Z,100158.53
2022-11-30T07:14:58.757Z,100150.25
2022-11-30T07:15:41.602Z,100155.59
2022-11-30T07:16:23.335Z,100153.81
2022-11-30T07:17:05.012Z,100156.44
2022-11-30T07:17:46.742Z,100157.25
2022-11-30T07:18:31.935Z,100156.28
2022-11-30T07:19:14.201Z,100156.28
2022-11-30T07:19:55.856Z,100165.81
2022-11-30T07:20:38.353Z,100163.88
2022-11-30T07:21:20.028Z,100167.47
2022-11-30T07:22:02.280Z,100156.78
2022-11-30T07:22:43.925Z,100170.78
2022-11-30T07:23:44.199Z,100164.53
2022-11-30T07:24:44.311Z,100162.72
2022-11-30T07:25:44.389Z,100167.03
2022-11-30T07:26:26.294Z,100165.06
2022-11-30T07:27:07.949Z,100166.72
2022-11-30T07:27:49.597Z,100163.13
2022-11-30T07:28:31.265Z,100164.59
2022-11-30T07:29:13.003Z,100162.63
2022-11-30T07:29:54.821Z,100172.19
2022-11-30T07:30:36.561Z,100167.91
2022-11-30T07:31:24.165Z,100175.66
2022-11-30T07:32:05.943Z,100169.06
2022-11-30T07:32:47.584Z,100172.69
2022-11-30T07:33:31.450Z,100163.78
2022-11-30T07:34:13.386Z,100164.59
2022-11-30T07:34:55.143Z,100164.59
2022-11-30T07:35:36.850Z,100173.84
2022-11-30T07:36:20.933Z,100170.09
2022-11-30T07:37:02.623Z,100165.94
2022-11-30T07:37:44.285Z,100175.88
2022-11-30T07:38:25.906Z,100173.09
2022-11-30T07:39:07.617Z,100136.50
2022-11-30T07:39:49.283Z,100170.13
2022-11-30T07:40:31.295Z,100169.28
2022-11-30T07:41:13.525Z,100167.00
2022-11-30T07:41:55.283Z,100169.25
2022-11-30T07:42:37.049Z,100168.88
2022-11-30T07:43:18.740Z,100131.16
2022-11-30T07:44:00.477Z,100164.25
2022-11-30T07:44:42.306Z,100119.03
2022-11-30T07:45:24.089Z,100160.41
2022-11-30T07:46:06.484Z,100158.91
2022-11-30T07:46:48.229Z,100167.28
2022-11-30T07:47:29.848Z,100173.38
2022-11-30T07:48:11.591Z,100169.91
2022-11-30T07:48:53.316Z,100173.53
2022-11-30T07:49:35.010Z,100149.00
2022-11-30T07:50:16.730Z,100148.69
2022-11-30T07:51:18.869Z,100177.84
2022-11-30T07:52:00.598Z,100123.81
2022-11-30T07:52:42.520Z,100176.84
2022-11-30T07:53:24.187Z,100181.16
2022-11-30T07:54:06.179Z,100176.69
2022-11-30T07:54:48.271Z,100172.84
2022-11-30T07:55:31.034Z,100182.66
2022-11-30T07:56:20.586Z,100178.03
2022-11-30T07:57:02.659Z,100179.84
2022-11-30T07:57:44.347Z,100175.53
2022-11-30T07:58:26.005Z,100183.31
2022-11-30T07:59:07.947Z,100152.69
2022-11-30T07:59:49.858Z,100185.78
2022-11-30T08:00:32.061Z,100191.91
2022-11-30T08:01:19.185Z,100186.63
2022-11-30T08:02:01.180Z,100184.75
2022-11-30T08:02:43.007Z,100181.97
2022-11-30T08:03:33.635Z,100184.75
2022-11-30T08:04:18.296Z,100192.53
2022-11-30T08:05:00.115Z,100189.88
2022-11-30T08:05:41.913Z,100192.53
2022-11-30T08:06:26.221Z,100192.53
2022-11-30T08:07:07.969Z,100191.69
2022-11-30T08:07:55.926Z,100192.53
2022-11-30T08:08:43.642Z,100197.81
2022-11-30T08:09:25.294Z,100191.38
2022-11-30T08:10:07.710Z,100198.00
2022-11-30T08:10:49.396Z,100194.38
2022-11-30T08:11:34.064Z,100193.94
2022-11-30T08:12:15.739Z,100184.13
2022-11-30T08:12:57.396Z,100192.28
2022-11-30T08:13:39.254Z,100194.91
2022-11-30T08:14:20.951Z,100189.09